Time;durP1;ratioP1;P1;durP2;ratioP2;P2;SDS_P1;SDS_P2;PMS_P1;PMS_P2;Temp;Humidity;BMP_temperature;BMP_pressure;BME280_temperature;BME280_humidity;BME280_pressure;Samples;Min_cycle;Max_cycle;Signal;HPM_P1;HPM_P2
2023/12/11 00:01:16;;;;;;;73.82;10.77;;;;;;;;;;5030568;28;20397;-76
2023/12/11 00:03:42;;;;;;;75.47;10.10;;;;;;;;;;5028581;28;20045;-76
2023/12/11 00:06:08;;;;;;;87.35;10.05;;;;;;;;;;5011633;28;20045;-77
2023/12/11 00:08:35;;;;;;;74.43;10.90;;;;;;;;;;5028739;28;20144;-75
2023/12/11 00:11:01;;;;;;;88.43;11.82;;;;;;;;;;5029839;28;20171;-77
2023/12/11 00:13:27;;;;;;;90.20;11.32;;;;;;;;;;5012550;28;20026;-75
2023/12/11 00:15:54;;;;;;;88.07;13.85;;;;;;;;;;5029491;28;20074;-76
2023/12/11 00:18:20;;;;;;;80.28;11.27;;;;;;;;;;5029578;28;20021;-75
2023/12/11 00:20:46;;;;;;;81.30;11.32;;;;;;;;;;5030238;28;20052;-74
2023/12/11 00:23:12;;;;;;;76.47;11.15;;;;;;;;;;5029335;28;20397;-76
2023/12/11 00:25:44;;;;;;;73.10;11.05;;;;;;;;;;5028859;28;20127;-76
2023/12/11 00:28:10;;;;;;;76.88;9.05;;;;;;;;;;5031893;28;20114;-75
2023/12/11 00:30:37;;;;;;;89.47;11.48;;;;;;;;;;5028293;28;20046;-75
2023/12/11 00:33:03;;;;;;;82.40;13.15;;;;;;;;;;5030056;28;20029;-76
2023/12/11 00:35:29;;;;;;;89.13;10.50;;;;;;;;;;5010321;28;20036;-77
2023/12/11 00:37:56;;;;;;;93.28;12.23;;;;;;;;;;5028701;28;20087;-74
2023/12/11 00:40:22;;;;;;;84.05;12.25;;;;;;;;;;5029075;28;20437;-75
2023/12/11 00:42:48;;;;;;;84.05;11.00;;;;;;;;;;5029604;28;20089;-77
2023/12/11 00:45:14;;;;;;;92.85;11.68;;;;;;;;;;5030107;28;20103;-76
2023/12/11 00:47:41;;;;;;;90.32;10.70;;;;;;;;;;5027736;28;20044;-76
2023/12/11 00:50:08;;;;;;;89.22;13.73;;;;;;;;;;5027467;28;20045;-76
2023/12/11 00:52:34;;;;;;;92.40;12.43;;;;;;;;;;5011613;28;20040;-76
2023/12/11 00:55:00;;;;;;;96.97;11.13;;;;;;;;;;5012082;28;20040;-76
2023/12/11 00:57:27;;;;;;;81.82;12.52;;;;;;;;;;5028805;28;20108;-76
2023/12/11 00:59:53;;;;;;;79.13;11.27;;;;;;;;;;5029324;28;20030;-76
2023/12/11 01:02:19;;;;;;;77.90;10.95;;;;;;;;;;5029036;28;20052;-76
2023/12/11 01:04:45;;;;;;;81.35;11.20;;;;;;;;;;5029823;28;20029;-76
2023/12/11 01:07:11;;;;;;;86.35;11.90;;;;;;;;;;5010533;28;20041;-75
2023/12/11 01:09:38;;;;;;;72.90;10.13;;;;;;;;;;5013581;28;20044;-75
2023/12/11 01:12:04;;;;;;;70.90;9.45;;;;;;;;;;5030969;28;20038;-76
2023/12/11 01:14:31;;;;;;;77.35;10.02;;;;;;;;;;5029877;28;20075;-76
2023/12/11 01:16:57;;;;;;;66.40;9.52;;;;;;;;;;5028770;28;20021;-75
2023/12/11 01:19:23;;;;;;;69.65;11.18;;;;;;;;;;5027452;28;20029;-78
2023/12/11 01:21:49;;;;;;;81.85;11.68;;;;;;;;;;5012068;28;20336;-77
2023/12/11 01:24:15;;;;;;;71.82;9.82;;;;;;;;;;5008929;28;20021;-76
2023/12/11 01:26:41;;;;;;;67.40;9.30;;;;;;;;;;5023275;28;20041;-77
2023/12/11 01:29:09;;;;;;;78.05;11.23;;;;;;;;;;5028950;28;20510;-76
2023/12/11 01:31:35;;;;;;;79.07;11.52;;;;;;;;;;5029076;28;20025;-76
2023/12/11 01:34:01;;;;;;;95.15;11.70;;;;;;;;;;5029433;28;20037;-75
2023/12/11 01:36:27;;;;;;;74.45;10.70;;;;;;;;;;5028791;28;20030;-74
2023/12/11 01:38:53;;;;;;;73.53;9.63;;;;;;;;;;5012344;28;20025;-75
2023/12/11 01:41:20;;;;;;;75.75;11.00;;;;;;;;;;5011119;28;20037;-76
2023/12/11 01:43:56;;;;;;;83.57;11.65;;;;;;;;;;5027553;28;20030;-76
2023/12/11 01:46:23;;;;;;;91.13;11.63;;;;;;;;;;5023119;28;20084;-76
2023/12/11 01:48:49;;;;;;;68.82;10.13;;;;;;;;;;5027204;28;20048;-76
2023/12/11 01:51:17;;;;;;;72.63;9.98;;;;;;;;;;4993198;28;20088;-76
2023/12/11 01:53:44;;;;;;;77.10;10.82;;;;;;;;;;5026060;28;20180;-76
2023/12/11 01:56:11;;;;;;;82.85;10.15;;;;;;;;;;5008287;28;20025;-77
2023/12/11 01:58:37;;;;;;;94.68;12.23;;;;;;;;;;5011439;28;20029;-76
2023/12/11 02:01:03;;;;;;;72.80;9.88;;;;;;;;;;5027071;28;20026;-76
2023/12/11 02:03:31;;;;;;;87.28;10.68;;;;;;;;;;5027185;28;20060;-78
2023/12/11 02:05:57;;;;;;;73.15;10.23;;;;;;;;;;5010759;28;20494;-77
2023/12/11 02:08:23;;;;;;;70.93;9.25;;;;;;;;;;5027283;28;20028;-77
2023/12/11 02:10:50;;;;;;;92.43;10.48;;;;;;;;;;5028534;28;20036;-76
2023/12/11 02:13:16;;;;;;;63.38;8.80;;;;;;;;;;5009549;28;20175;-76
2023/12/11 02:15:46;;;;;;;75.53;10.23;;;;;;;;;;5009208;28;20171;-76
2023/12/11 02:18:13;;;;;;;65.63;8.43;;;;;;;;;;5027526;28;20147;-76
2023/12/11 02:20:40;;;;;;;86.38;11.55;;;;;;;;;;5027172;28;20094;-77
2023/12/11 02:23:19;;;;;;;79.30;9.70;;;;;;;;;;5015145;28;20053;-76
2023/12/11 02:25:48;;;;;;;88.30;9.75;;;;;;;;;;5027867;28;20487;-76
2023/12/11 02:28:14;;;;;;;76.38;9.35;;;;;;;;;;5011163;28;20048;-76
2023/12/11 02:30:50;;;;;;;85.50;9.90;;;;;;;;;;5010464;28;20057;-76
2023/12/11 02:33:17;;;;;;;95.70;10.30;;;;;;;;;;5026379;28;20487;-76
2023/12/11 02:35:43;;;;;;;94.28;13.38;;;;;;;;;;5009813;28;20522;-76
2023/12/11 02:38:10;;;;;;;75.78;10.05;;;;;;;;;;5010223;28;20021;-76
2023/12/11 02:40:36;;;;;;;94.40;12.18;;;;;;;;;;5027666;28;20033;-77
2023/12/11 02:43:02;;;;;;;83.50;11.00;;;;;;;;;;5010224;28;20113;-79
2023/12/11 02:45:28;;;;;;;79.70;9.70;;;;;;;;;;5009116;28;20049;-78
2023/12/11 02:48:02;;;;;;;85.95;12.18;;;;;;;;;;5025412;28;20095;-76
2023/12/11 02:50:31;;;;;;;88.78;11.18;;;;;;;;;;5026271;28;20033;-76
2023/12/11 02:52:58;;;;;;;71.07;8.15;;;;;;;;;;5026311;28;20087;-76
2023/12/11 02:55:24;;;;;;;81.80;8.80;;;;;;;;;;5005470;28;20045;-77
2023/12/11 02:57:51;;;;;;;66.65;7.78;;;;;;;;;;5009536;28;20120;-78
2023/12/11 03:00:17;;;;;;;78.50;9.40;;;;;;;;;;5025907;28;20018;-75
2023/12/11 03:02:43;;;;;;;78.88;10.20;;;;;;;;;;5007315;28;20025;-77
2023/12/11 03:05:09;;;;;;;69.25;10.07;;;;;;;;;;5022736;28;20049;-77
2023/12/11 03:07:35;;;;;;;82.22;10.15;;;;;;;;;;5008382;28;20033;-77
2023/12/11 03:10:02;;;;;;;84.18;9.73;;;;;;;;;;5026208;28;20022;-77
2023/12/11 03:12:28;;;;;;;75.35;8.60;;;;;;;;;;5023505;28;20191;-77
2023/12/11 03:14:54;;;;;;;65.55;7.97;;;;;;;;;;5025641;28;20491;-77
2023/12/11 03:17:20;;;;;;;73.53;10.55;;;;;;;;;;5012887;28;20413;-76
2023/12/11 03:19:46;;;;;;;83.50;10.68;;;;;;;;;;5015302;28;20088;-76
2023/12/11 03:22:12;;;;;;;63.28;9.48;;;;;;;;;;5007646;28;20079;-76
2023/12/11 03:24:39;;;;;;;60.78;10.27;;;;;;;;;;5023641;28;20041;-78
2023/12/11 03:27:05;;;;;;;69.82;10.23;;;;;;;;;;5024877;28;20087;-76
2023/12/11 03:29:32;;;;;;;83.05;10.57;;;;;;;;;;5025979;28;20056;-75
2023/12/11 03:31:58;;;;;;;68.80;10.93;;;;;;;;;;5008589;28;20033;-76
2023/12/11 03:34:24;;;;;;;72.78;8.80;;;;;;;;;;5025471;28;20041;-76
2023/12/11 03:36:50;;;;;;;65.30;9.02;;;;;;;;;;5020765;28;20124;-76
2023/12/11 03:39:16;;;;;;;61.67;9.30;;;;;;;;;;5020634;28;20026;-76
2023/12/11 03:41:44;;;;;;;71.88;9.07;;;;;;;;;;5023289;28;20499;-76
2023/12/11 03:44:10;;;;;;;73.82;9.10;;;;;;;;;;5025976;28;20084;-76
2023/12/11 03:46:36;;;;;;;76.97;9.43;;;;;;;;;;4946884;28;2072272;-76
2023/12/11 03:49:02;;;;;;;79.75;10.50;;;;;;;;;;5021074;28;20394;-76
2023/12/11 03:51:28;;;;;;;59.60;9.80;;;;;;;;;;5018420;28;20194;-77
2023/12/11 03:53:54;;;;;;;71.07;10.95;;;;;;;;;;5026472;28;20078;-77
2023/12/11 03:56:21;;;;;;;67.30;9.35;;;;;;;;;;5026348;28;20029;-76
2023/12/11 03:58:47;;;;;;;72.93;9.15;;;;;;;;;;5027185;28;20112;-76
2023/12/11 04:01:13;;;;;;;76.18;8.90;;;;;;;;;;5026620;28;20041;-77
2023/12/11 04:03:39;;;;;;;74.82;10.25;;;;;;;;;;5008932;28;20057;-78
2023/12/11 04:06:05;;;;;;;70.25;8.93;;;;;;;;;;5010031;28;20025;-78
2023/12/11 04:08:31;;;;;;;72.75;9.68;;;;;;;;;;5030033;28;20041;-77
2023/12/11 04:10:57;;;;;;;71.53;10.88;;;;;;;;;;5013332;28;20022;-77
2023/12/11 04:13:24;;;;;;;75.43;11.73;;;;;;;;;;5028989;28;20025;-76
2023/12/11 04:15:50;;;;;;;67.85;8.75;;;;;;;;;;4996669;28;20495;-76
2023/12/11 04:18:16;;;;;;;78.63;9.77;;;;;;;;;;5029171;28;20036;-75
2023/12/11 04:20:42;;;;;;;79.35;10.40;;;;;;;;;;5030392;28;20029;-78
2023/12/11 04:23:08;;;;;;;68.45;11.00;;;;;;;;;;5029728;28;20033;-76
2023/12/11 04:25:34;;;;;;;74.55;10.27;;;;;;;;;;5031102;28;20105;-76
2023/12/11 04:28:01;;;;;;;75.60;10.07;;;;;;;;;;5031051;28;20228;-77
2023/12/11 04:30:27;;;;;;;66.20;9.88;;;;;;;;;;5031511;28;20131;-77
2023/12/11 04:32:53;;;;;;;71.35;9.65;;;;;;;;;;5029955;28;20045;-75
2023/12/11 04:35:20;;;;;;;65.63;8.93;;;;;;;;;;5028451;28;20032;-76
2023/12/11 04:37:46;;;;;;;68.40;9.45;;;;;;;;;;5023869;28;20041;-78
2023/12/11 04:40:13;;;;;;;78.18;10.80;;;;;;;;;;5029913;28;20132;-77
2023/12/11 04:42:39;;;;;;;64.63;9.52;;;;;;;;;;5029227;28;20029;-76
2023/12/11 04:45:06;;;;;;;61.58;8.30;;;;;;;;;;5006810;28;20073;-76
2023/12/11 04:47:32;;;;;;;64.88;7.50;;;;;;;;;;5010180;28;20034;-77
2023/12/11 04:49:58;;;;;;;63.75;8.45;;;;;;;;;;5025093;28;20030;-76
2023/12/11 04:52:24;;;;;;;60.08;8.70;;;;;;;;;;5007545;28;20109;-75
2023/12/11 04:54:50;;;;;;;72.45;9.48;;;;;;;;;;5009050;28;20022;-76
2023/12/11 04:57:16;;;;;;;70.97;9.50;;;;;;;;;;5007286;28;20116;-76
2023/12/11 04:59:42;;;;;;;59.65;7.93;;;;;;;;;;5009562;28;20109;-75
2023/12/11 05:02:08;;;;;;;66.78;9.07;;;;;;;;;;5010145;28;20038;-76
2023/12/11 05:04:35;;;;;;;65.40;9.25;;;;;;;;;;5007674;28;20034;-76
2023/12/11 05:07:01;;;;;;;59.88;8.90;;;;;;;;;;5019408;28;20065;-76
2023/12/11 05:09:27;;;;;;;57.25;8.70;;;;;;;;;;5009018;28;20502;-77
2023/12/11 05:11:53;;;;;;;71.60;9.00;;;;;;;;;;5008771;28;20046;-78
2023/12/11 05:14:19;;;;;;;63.85;9.77;;;;;;;;;;5022470;28;20041;-78
2023/12/11 05:16:46;;;;;;;64.43;8.50;;;;;;;;;;5006225;28;20543;-77
2023/12/11 05:19:12;;;;;;;67.75;8.82;;;;;;;;;;5009115;28;20045;-76
2023/12/11 05:21:38;;;;;;;71.28;10.50;;;;;;;;;;5008686;28;20052;-77
2023/12/11 05:24:04;;;;;;;62.58;9.80;;;;;;;;;;5009222;28;20502;-77
2023/12/11 05:26:30;;;;;;;64.75;8.25;;;;;;;;;;5008281;28;20040;-77
2023/12/11 05:28:56;;;;;;;69.30;9.55;;;;;;;;;;5009571;28;20034;-75
2023/12/11 05:31:22;;;;;;;61.35;8.10;;;;;;;;;;5009301;28;20030;-76
2023/12/11 05:33:49;;;;;;;53.22;7.30;;;;;;;;;;5023594;28;20046;-77
2023/12/11 05:36:15;;;;;;;51.20;7.45;;;;;;;;;;5009424;28;20125;-79
2023/12/11 05:38:41;;;;;;;55.85;10.02;;;;;;;;;;5007392;28;20030;-77
2023/12/11 05:41:07;;;;;;;55.85;7.05;;;;;;;;;;5022004;28;20037;-77
2023/12/11 05:43:33;;;;;;;42.55;7.45;;;;;;;;;;5007639;28;20057;-79
2023/12/11 05:45:59;;;;;;;46.35;6.78;;;;;;;;;;5020458;28;20098;-77
2023/12/11 05:48:26;;;;;;;47.00;6.63;;;;;;;;;;5009214;28;20037;-77
2023/12/11 05:50:55;;;;;;;40.00;5.97;;;;;;;;;;5019965;28;20076;-77
2023/12/11 05:53:21;;;;;;;43.50;6.38;;;;;;;;;;5027231;28;20051;-75
2023/12/11 05:55:47;;;;;;;49.13;6.53;;;;;;;;;;5028707;28;20036;-77
2023/12/11 05:58:14;;;;;;;43.10;6.07;;;;;;;;;;5027735;28;20045;-76
2023/12/11 06:00:41;;;;;;;45.05;5.97;;;;;;;;;;5026849;28;20183;-78
2023/12/11 06:03:07;;;;;;;46.83;6.35;;;;;;;;;;5025797;28;20378;-76
2023/12/11 06:05:33;;;;;;;43.70;6.68;;;;;;;;;;5027664;28;20025;-77
2023/12/11 06:08:00;;;;;;;40.97;6.30;;;;;;;;;;5007068;28;20065;-76
2023/12/11 06:10:27;;;;;;;42.78;6.97;;;;;;;;;;5023734;28;20036;-76
2023/12/11 06:12:54;;;;;;;41.60;4.93;;;;;;;;;;5017560;28;20124;-77
2023/12/11 06:15:22;;;;;;;44.75;5.95;;;;;;;;;;5007107;28;20096;-80
2023/12/11 06:17:48;;;;;;;33.97;5.80;;;;;;;;;;5025976;28;20045;-77
2023/12/11 06:20:15;;;;;;;32.83;5.57;;;;;;;;;;5022639;28;20041;-78
2023/12/11 06:22:42;;;;;;;42.05;7.10;;;;;;;;;;5025433;28;20033;-78
2023/12/11 06:25:08;;;;;;;39.22;5.93;;;;;;;;;;5026159;28;20029;-77
2023/12/11 06:27:34;;;;;;;43.35;5.72;;;;;;;;;;5028175;28;20048;-81
2023/12/11 06:30:00;;;;;;;39.90;5.57;;;;;;;;;;5028003;28;20025;-77
2023/12/11 06:32:26;;;;;;;37.10;6.18;;;;;;;;;;5028583;28;20076;-80
2023/12/11 06:34:56;;;;;;;49.67;6.95;;;;;;;;;;5026829;28;20045;-78
2023/12/11 06:37:22;;;;;;;37.20;4.43;;;;;;;;;;5025452;28;20037;-78
2023/12/11 06:39:48;;;;;;;56.40;6.65;;;;;;;;;;5026130;28;20025;-79
2023/12/11 06:42:15;;;;;;;44.42;6.60;;;;;;;;;;4998672;28;20029;-77
2023/12/11 06:44:41;;;;;;;38.08;4.95;;;;;;;;;;5025974;28;20029;-77
2023/12/11 06:47:07;;;;;;;34.03;4.47;;;;;;;;;;5005342;28;20046;-77
2023/12/11 06:49:33;;;;;;;37.80;5.60;;;;;;;;;;5021063;28;20041;-76
2023/12/11 06:51:59;;;;;;;28.17;4.95;;;;;;;;;;5004933;28;20029;-78
2023/12/11 06:54:26;;;;;;;36.00;5.10;;;;;;;;;;5006973;28;20645;-76
2023/12/11 06:56:52;;;;;;;33.55;5.65;;;;;;;;;;5004162;28;21004;-75
2023/12/11 06:59:18;;;;;;;46.55;6.30;;;;;;;;;;5018550;28;20034;-77
2023/12/11 07:01:44;;;;;;;42.20;6.25;;;;;;;;;;5020929;28;20125;-77
2023/12/11 07:04:10;;;;;;;39.38;5.00;;;;;;;;;;4999886;28;20037;-80
2023/12/11 07:06:37;;;;;;;32.15;5.20;;;;;;;;;;5021414;28;20045;-78
2023/12/11 07:09:03;;;;;;;33.88;4.90;;;;;;;;;;5006479;28;20034;-75
2023/12/11 07:11:29;;;;;;;27.95;4.85;;;;;;;;;;5020096;28;20042;-80
2023/12/11 07:13:56;;;;;;;26.23;4.85;;;;;;;;;;5004583;28;20034;-78
2023/12/11 07:16:25;;;;;;;27.45;4.07;;;;;;;;;;5000951;28;20429;-77
2023/12/11 07:18:52;;;;;;;27.17;4.97;;;;;;;;;;5005066;28;20103;-77
2023/12/11 07:21:18;;;;;;;35.53;6.00;;;;;;;;;;5004467;28;20061;-78
2023/12/11 07:23:48;;;;;;;31.13;4.88;;;;;;;;;;5004000;28;20026;-77
2023/12/11 07:26:14;;;;;;;32.50;5.50;;;;;;;;;;5003617;28;20097;-77
2023/12/11 07:28:40;;;;;;;35.40;5.03;;;;;;;;;;5007055;28;20034;-78
2023/12/11 07:31:06;;;;;;;31.88;5.43;;;;;;;;;;5007012;28;20490;-76
2023/12/11 07:33:33;;;;;;;32.63;4.72;;;;;;;;;;5004292;28;20034;-77
2023/12/11 07:35:59;;;;;;;28.60;5.38;;;;;;;;;;5021680;28;20153;-77
2023/12/11 07:38:25;;;;;;;24.85;3.65;;;;;;;;;;5022334;28;20022;-77
2023/12/11 07:40:55;;;;;;;20.60;4.07;;;;;;;;;;5006932;28;20030;-75
2023/12/11 07:43:22;;;;;;;22.85;3.60;;;;;;;;;;5010803;28;20038;-78
2023/12/11 07:45:48;;;;;;;20.88;3.88;;;;;;;;;;5019299;28;20057;-78
2023/12/11 07:48:15;;;;;;;25.90;4.63;;;;;;;;;;5026753;28;20030;-78
2023/12/11 07:50:41;;;;;;;27.40;3.85;;;;;;;;;;5018734;28;20038;-80
2023/12/11 07:53:08;;;;;;;32.28;4.93;;;;;;;;;;5032556;28;20149;-77
2023/12/11 07:55:35;;;;;;;28.15;4.78;;;;;;;;;;5029600;28;20037;-78
2023/12/11 07:58:03;;;;;;;37.58;4.80;;;;;;;;;;5010369;28;20456;-77
2023/12/11 08:00:30;;;;;;;28.27;5.72;;;;;;;;;;5031373;28;20021;-76
2023/12/11 08:02:56;;;;;;;27.30;4.57;;;;;;;;;;5010561;28;20510;-78
2023/12/11 08:05:26;;;;;;;34.38;6.53;;;;;;;;;;5029784;28;20033;-77
2023/12/11 08:07:52;;;;;;;35.45;5.35;;;;;;;;;;5029709;28;20025;-77
2023/12/11 08:10:18;;;;;;;35.40;5.53;;;;;;;;;;5026993;28;20108;-78
2023/12/11 08:12:48;;;;;;;39.33;5.63;;;;;;;;;;5028200;28;20378;-79
2023/12/11 08:15:15;;;;;;;26.77;4.68;;;;;;;;;;5029837;28;20025;-78
2023/12/11 08:17:41;;;;;;;38.83;5.40;;;;;;;;;;5027180;28;20034;-79
2023/12/11 08:20:09;;;;;;;29.33;5.05;;;;;;;;;;5009397;28;20030;-77
2023/12/11 08:22:35;;;;;;;26.67;6.32;;;;;;;;;;5011275;28;20057;-81
2023/12/11 08:25:02;;;;;;;26.73;5.72;;;;;;;;;;5028750;28;20426;-78
2023/12/11 08:27:28;;;;;;;25.48;4.78;;;;;;;;;;5029633;28;20147;-77
2023/12/11 08:29:54;;;;;;;20.98;4.03;;;;;;;;;;5010385;28;20034;-78
2023/12/11 08:32:21;;;;;;;32.00;4.93;;;;;;;;;;5030414;28;20048;-77
2023/12/11 08:34:47;;;;;;;36.95;5.25;;;;;;;;;;5028101;28;20113;-79
2023/12/11 08:37:13;;;;;;;24.92;5.00;;;;;;;;;;5009353;28;20475;-78
2023/12/11 08:39:39;;;;;;;26.15;4.20;;;;;;;;;;5029801;28;20065;-78
2023/12/11 08:42:05;;;;;;;29.80;5.35;;;;;;;;;;5011836;28;20030;-78
2023/12/11 08:44:32;;;;;;;26.40;5.03;;;;;;;;;;5022395;28;20034;-76
2023/12/11 08:46:58;;;;;;;24.58;4.60;;;;;;;;;;5026786;28;20045;-78
2023/12/11 08:49:25;;;;;;;27.27;5.50;;;;;;;;;;5029473;28;20109;-78
2023/12/11 08:51:51;;;;;;;31.67;4.88;;;;;;;;;;5028858;28;20482;-79
2023/12/11 08:54:17;;;;;;;39.28;6.80;;;;;;;;;;5024035;28;20080;-80
2023/12/11 08:56:43;;;;;;;28.95;5.82;;;;;;;;;;5029347;28;20056;-76
2023/12/11 08:59:09;;;;;;;28.83;5.45;;;;;;;;;;5027488;28;20036;-77
2023/12/11 09:01:37;;;;;;;30.85;5.55;;;;;;;;;;5016978;28;20046;-78
2023/12/11 09:04:04;;;;;;;30.27;5.43;;;;;;;;;;5029060;28;20398;-79
2023/12/11 09:06:30;;;;;;;37.40;6.00;;;;;;;;;;5028522;28;20072;-77
2023/12/11 09:08:57;;;;;;;48.08;7.75;;;;;;;;;;5010291;28;20034;-78
2023/12/11 09:11:26;;;;;;;30.40;5.57;;;;;;;;;;5010907;28;20415;-80
2023/12/11 09:13:52;;;;;;;39.58;6.22;;;;;;;;;;5021159;28;20060;-77
2023/12/11 09:16:18;;;;;;;33.72;6.22;;;;;;;;;;5010887;28;20083;-79
2023/12/11 09:18:44;;;;;;;35.72;6.82;;;;;;;;;;5028880;28;20091;-77
2023/12/11 09:21:10;;;;;;;41.88;6.75;;;;;;;;;;5026735;28;20034;-78
2023/12/11 09:23:37;;;;;;;28.15;6.32;;;;;;;;;;5029004;28;20309;-78
2023/12/11 09:26:03;;;;;;;31.65;7.13;;;;;;;;;;5027694;28;20029;-79
2023/12/11 09:28:29;;;;;;;34.10;6.32;;;;;;;;;;5028073;28;20033;-77
2023/12/11 09:30:55;;;;;;;34.47;5.38;;;;;;;;;;5026439;28;20479;-79
2023/12/11 09:33:21;;;;;;;37.08;5.78;;;;;;;;;;5027211;28;20094;-79
2023/12/11 09:35:48;;;;;;;33.50;5.82;;;;;;;;;;5028609;28;20367;-81
2023/12/11 09:38:14;;;;;;;37.47;6.03;;;;;;;;;;5011149;28;20034;-78
2023/12/11 09:40:40;;;;;;;34.13;6.43;;;;;;;;;;5021522;28;20117;-78
2023/12/11 09:43:06;;;;;;;43.78;7.00;;;;;;;;;;5028501;28;20029;-77
2023/12/11 09:45:33;;;;;;;36.97;6.30;;;;;;;;;;5025280;28;20056;-77
2023/12/11 09:47:59;;;;;;;53.53;6.75;;;;;;;;;;5020615;28;20208;-77
2023/12/11 09:50:26;;;;;;;37.55;7.00;;;;;;;;;;5026970;28;20388;-76
2023/12/11 09:52:53;;;;;;;40.83;6.50;;;;;;;;;;5002626;28;20029;-78
2023/12/11 09:55:19;;;;;;;41.05;6.85;;;;;;;;;;5019206;28;20056;-79
2023/12/11 09:57:46;;;;;;;33.55;5.70;;;;;;;;;;5008640;28;20063;-77
2023/12/11 10:00:13;;;;;;;34.28;6.97;;;;;;;;;;5027080;28;20183;-79
2023/12/11 10:02:40;;;;;;;39.03;6.65;;;;;;;;;;5010792;28;20045;-77
2023/12/11 10:05:08;;;;;;;34.22;6.13;;;;;;;;;;5023842;28;20037;-77
2023/12/11 10:07:35;;;;;;;39.15;6.63;;;;;;;;;;5027459;28;20471;-77
2023/12/11 10:10:20;;;;;;;35.58;6.00;;;;;;;;;;5002664;28;20045;-77
2023/12/11 10:12:46;;;;;;;43.30;6.15;;;;;;;;;;5015826;28;20037;-76
2023/12/11 10:15:18;;;;;;;40.28;6.38;;;;;;;;;;5016387;28;20519;-78
2023/12/11 10:17:45;;;;;;;31.40;5.43;;;;;;;;;;5026932;28;20028;-77
2023/12/11 10:20:17;;;;;;;25.17;5.32;;;;;;;;;;4993882;28;20418;-77
2023/12/11 10:22:44;;;;;;;31.60;4.95;;;;;;;;;;5027651;28;20167;-76
2023/12/11 10:25:10;;;;;;;35.45;4.63;;;;;;;;;;5006785;28;20082;-76
2023/12/11 10:27:36;;;;;;;33.72;4.85;;;;;;;;;;5008737;28;20057;-79
2023/12/11 10:30:13;;;;;;;29.30;4.57;;;;;;;;;;5006717;28;20045;-76
2023/12/11 10:32:39;;;;;;;27.52;4.45;;;;;;;;;;5020721;28;20077;-78
2023/12/11 10:35:06;;;;;;;30.50;4.40;;;;;;;;;;5025536;28;20084;-77
2023/12/11 10:37:36;;;;;;;36.45;6.00;;;;;;;;;;5027325;28;20033;-78
2023/12/11 10:40:03;;;;;;;30.23;4.63;;;;;;;;;;5002560;28;20037;-77
2023/12/11 10:42:29;;;;;;;29.88;4.45;;;;;;;;;;5020500;28;20055;-77
2023/12/11 10:44:56;;;;;;;26.85;5.32;;;;;;;;;;5026676;28;20112;-76
2023/12/11 10:47:22;;;;;;;32.55;4.97;;;;;;;;;;5010855;28;20172;-76
2023/12/11 10:49:49;;;;;;;22.30;4.32;;;;;;;;;;5027470;28;20057;-77
2023/12/11 10:52:16;;;;;;;25.60;5.30;;;;;;;;;;5014536;28;20154;-77
2023/12/11 10:54:42;;;;;;;32.10;5.55;;;;;;;;;;5008390;28;20119;-76
2023/12/11 10:57:16;;;;;;;27.52;4.50;;;;;;;;;;5008061;28;20041;-77
2023/12/11 10:59:43;;;;;;;31.33;4.93;;;;;;;;;;5026215;28;20118;-77
2023/12/11 11:02:10;;;;;;;28.02;4.63;;;;;;;;;;5020073;28;20033;-78
2023/12/11 11:04:39;;;;;;;20.20;4.55;;;;;;;;;;5012737;28;20353;-76
2023/12/11 11:07:08;;;;;;;19.33;3.05;;;;;;;;;;5011353;28;20487;-77
2023/12/11 11:09:52;;;;;;;19.00;2.95;;;;;;;;;;5010494;28;20022;-79
2023/12/11 11:12:28;;;;;;;12.32;3.00;;;;;;;;;;5028398;28;20095;-75
2023/12/11 11:14:54;;;;;;;20.05;3.60;;;;;;;;;;5005991;28;20041;-78
2023/12/11 11:17:20;;;;;;;19.75;3.50;;;;;;;;;;5026993;28;20041;-78
2023/12/11 11:20:05;;;;;;;19.23;3.50;;;;;;;;;;5030422;28;20398;-77
2023/12/11 11:22:31;;;;;;;24.33;3.58;;;;;;;;;;5013263;28;20049;-78
2023/12/11 11:24:57;;;;;;;22.05;4.13;;;;;;;;;;5019797;28;20056;-77
2023/12/11 11:27:43;;;;;;;28.60;4.05;;;;;;;;;;5028386;28;20036;-77
2023/12/11 11:30:10;;;;;;;22.85;4.07;;;;;;;;;;5030838;28;20052;-77
2023/12/11 11:32:53;;;;;;;17.40;3.13;;;;;;;;;;5031562;28;20037;-77
2023/12/11 11:35:38;;;;;;;18.85;3.25;;;;;;;;;;5028826;28;20029;-77
2023/12/11 11:38:04;;;;;;;17.92;3.03;;;;;;;;;;5011272;28;20136;-80
2023/12/11 11:40:34;;;;;;;16.75;3.30;;;;;;;;;;5008301;28;20080;-77
2023/12/11 11:43:00;;;;;;;20.23;3.60;;;;;;;;;;5025554;28;20041;-78
2023/12/11 11:45:27;;;;;;;19.33;3.20;;;;;;;;;;5029997;28;20037;-78
2023/12/11 11:47:54;;;;;;;18.33;3.00;;;;;;;;;;4999329;28;20050;-77
2023/12/11 11:50:20;;;;;;;27.48;5.05;;;;;;;;;;5010943;28;20038;-76
2023/12/11 11:52:50;;;;;;;18.67;2.88;;;;;;;;;;5007216;28;20140;-77
2023/12/11 11:55:20;;;;;;;17.92;3.08;;;;;;;;;;5003223;28;20034;-76
2023/12/11 11:57:46;;;;;;;18.73;3.65;;;;;;;;;;5009443;28;20054;-77
2023/12/11 12:00:12;;;;;;;20.58;3.03;;;;;;;;;;5010421;28;20517;-75
2023/12/11 12:02:38;;;;;;;27.13;4.40;;;;;;;;;;5009665;28;20038;-77
2023/12/11 12:05:08;;;;;;;17.48;3.63;;;;;;;;;;5010134;28;20125;-76
2023/12/11 12:07:37;;;;;;;26.90;5.30;;;;;;;;;;5008570;28;20505;-77
2023/12/11 12:10:04;;;;;;;21.00;4.07;;;;;;;;;;5009930;28;20022;-75
2023/12/11 12:12:30;;;;;;;22.17;4.40;;;;;;;;;;5007618;28;20022;-76
2023/12/11 12:15:00;;;;;;;23.45;4.75;;;;;;;;;;5010050;28;20026;-77
2023/12/11 12:17:26;;;;;;;27.30;4.47;;;;;;;;;;5025676;28;20042;-76
2023/12/11 12:19:53;;;;;;;21.92;3.53;;;;;;;;;;5010851;28;20813;-76
2023/12/11 12:22:19;;;;;;;20.52;3.60;;;;;;;;;;5009276;28;20079;-78
2023/12/11 12:24:48;;;;;;;16.23;3.33;;;;;;;;;;5008567;28;20045;-76
2023/12/11 12:27:18;;;;;;;15.02;3.67;;;;;;;;;;5024120;28;20490;-76
2023/12/11 12:29:46;;;;;;;20.55;4.07;;;;;;;;;;5010080;28;20040;-77
2023/12/11 12:32:13;;;;;;;25.98;4.82;;;;;;;;;;5010762;28;20048;-77
2023/12/11 12:34:40;;;;;;;14.73;4.07;;;;;;;;;;5002563;28;20053;-75
2023/12/11 12:37:07;;;;;;;23.38;3.97;;;;;;;;;;5003721;28;20018;-76
2023/12/11 12:39:33;;;;;;;15.32;3.50;;;;;;;;;;5007015;28;20326;-76
2023/12/11 12:42:00;;;;;;;17.80;3.70;;;;;;;;;;5008923;28;20045;-76
2023/12/11 12:44:26;;;;;;;22.02;4.32;;;;;;;;;;5009054;28;20041;-77
2023/12/11 12:46:53;;;;;;;21.13;3.72;;;;;;;;;;5016359;28;20584;-77
2023/12/11 12:49:21;;;;;;;18.63;3.90;;;;;;;;;;5028442;28;20029;-77
2023/12/11 12:51:47;;;;;;;18.65;3.63;;;;;;;;;;5009358;28;20029;-76
2023/12/11 12:54:14;;;;;;;20.67;4.82;;;;;;;;;;5027836;28;20036;-77
2023/12/11 12:56:42;;;;;;;15.10;3.90;;;;;;;;;;5010578;28;20068;-77
2023/12/11 12:59:08;;;;;;;20.77;3.35;;;;;;;;;;5029568;28;20216;-77
2023/12/11 13:01:36;;;;;;;14.40;3.83;;;;;;;;;;5028661;28;20040;-76
2023/12/11 13:04:03;;;;;;;22.65;4.13;;;;;;;;;;5029953;28;20025;-75
2023/12/11 13:06:29;;;;;;;18.42;4.28;;;;;;;;;;5029180;28;20042;-77
2023/12/11 13:08:56;;;;;;;16.45;3.90;;;;;;;;;;5028543;28;20065;-75
2023/12/11 13:11:22;;;;;;;18.90;3.80;;;;;;;;;;5028421;28;20022;-77
2023/12/11 13:13:53;;;;;;;15.68;3.95;;;;;;;;;;5013879;28;20042;-76
2023/12/11 13:16:19;;;;;;;17.95;4.15;;;;;;;;;;5014109;28;20375;-77
2023/12/11 13:18:45;;;;;;;21.60;4.25;;;;;;;;;;5018345;28;20033;-76
2023/12/11 13:21:12;;;;;;;18.38;4.30;;;;;;;;;;5026916;28;20356;-77
2023/12/11 13:23:39;;;;;;;13.77;3.60;;;;;;;;;;5030089;28;20434;-76
2023/12/11 13:26:05;;;;;;;13.63;3.45;;;;;;;;;;5028666;28;20032;-77
2023/12/11 13:28:31;;;;;;;24.25;4.57;;;;;;;;;;5015572;28;20029;-76
2023/12/11 13:30:57;;;;;;;19.33;3.78;;;;;;;;;;5026963;28;20041;-76
2023/12/11 13:33:27;;;;;;;16.83;4.60;;;;;;;;;;5027492;28;20104;-76
2023/12/11 13:35:53;;;;;;;16.67;4.10;;;;;;;;;;5023199;28;20033;-75
2023/12/11 13:38:20;;;;;;;19.77;4.43;;;;;;;;;;5026434;28;20113;-74
2023/12/11 13:40:46;;;;;;;20.83;4.60;;;;;;;;;;5022730;28;20064;-76
2023/12/11 13:43:12;;;;;;;25.55;4.72;;;;;;;;;;5026242;28;20494;-75
2023/12/11 13:45:39;;;;;;;20.20;4.63;;;;;;;;;;5003596;28;20033;-76
2023/12/11 13:48:05;;;;;;;28.00;4.20;;;;;;;;;;5016878;28;20581;-75
2023/12/11 13:50:32;;;;;;;21.73;3.90;;;;;;;;;;5024169;28;20033;-75
2023/12/11 13:52:59;;;;;;;22.13;5.53;;;;;;;;;;5014233;28;20868;-76
2023/12/11 13:55:25;;;;;;;17.85;4.20;;;;;;;;;;5026446;28;20033;-78
2023/12/11 13:57:51;;;;;;;20.20;4.60;;;;;;;;;;5027316;28;20450;-75
2023/12/11 14:00:19;;;;;;;23.17;4.22;;;;;;;;;;5025877;28;20499;-76
2023/12/11 14:02:45;;;;;;;17.80;3.92;;;;;;;;;;5012032;28;20034;-75
2023/12/11 14:05:15;;;;;;;15.32;3.22;;;;;;;;;;5021796;28;20073;-77
2023/12/11 14:07:41;;;;;;;14.95;4.22;;;;;;;;;;5026035;28;20037;-75
2023/12/11 14:10:08;;;;;;;15.85;3.42;;;;;;;;;;5008457;28;20414;-77
2023/12/11 14:12:36;;;;;;;12.90;3.38;;;;;;;;;;5026885;28;20045;-77
2023/12/11 14:15:04;;;;;;;14.63;3.30;;;;;;;;;;5025056;28;20037;-76
2023/12/11 14:17:31;;;;;;;11.27;3.00;;;;;;;;;;5023785;28;20021;-75
2023/12/11 14:19:57;;;;;;;14.50;2.72;;;;;;;;;;5027964;28;20045;-75
2023/12/11 14:22:23;;;;;;;15.57;3.42;;;;;;;;;;5027686;28;20026;-76
2023/12/11 14:24:49;;;;;;;13.48;3.05;;;;;;;;;;5025524;28;20045;-76